NSZ9BH EKCH-EKYT
Flight info
| Callsign | NSZ9BH |
|---|---|
| Flight time | 0h 26m |
| Altitude | 20000 |
| Route | GOLGA T506 LAPMA L621 AAL |
| Aircraft | B38M/M-SDE1FGHILORVWXY/HB1 |
Departure
| Time | 2026-04-30 21:23 |
|---|---|
| Airport | Copenhagen Kastrup Airport (EKCH) |
Arrival
| Time | 2026-04-30 21:49 |
|---|---|
| Airport | Aalborg Airport (EKYT) |
| Time | Latitude | Longitude | Altitude | Speed | Heading |
|---|---|---|---|---|---|
| 2026-04-30 20:52 | 55.62856 | 12.64255 | 26 ft | 0 kts | 101° |
| 2026-04-30 21:10 | 55.62858 | 12.64245 | 18 ft | 4 kts | 100° |
| 2026-04-30 21:10 | 55.62861 | 12.64208 | 27 ft | 4 kts | 95° |
| 2026-04-30 21:10 | 55.62858 | 12.64162 | 27 ft | 4 kts | 68° |
| 2026-04-30 21:10 | 55.62846 | 12.64120 | 30 ft | 4 kts | 65° |
| 2026-04-30 21:11 | 55.62838 | 12.64086 | 31 ft | 4 kts | 67° |
| 2026-04-30 21:11 | 55.62828 | 12.64042 | 28 ft | 4 kts | 72° |
| 2026-04-30 21:11 | 55.62823 | 12.63995 | 29 ft | 4 kts | 91° |
| 2026-04-30 21:11 | 55.62826 | 12.63958 | 29 ft | 4 kts | 106° |
| 2026-04-30 21:12 | 55.62835 | 12.63913 | 29 ft | 4 kts | 108° |
| 2026-04-30 21:12 | 55.62840 | 12.63878 | 32 ft | 0 kts | 100° |
| 2026-04-30 21:14 | 55.62840 | 12.63880 | 32 ft | 0 kts | 100° |
| 2026-04-30 21:15 | 55.62840 | 12.63883 | 32 ft | 0 kts | 100° |
| 2026-04-30 21:15 | 55.62839 | 12.63884 | 32 ft | 0 kts | 100° |
| 2026-04-30 21:15 | 55.62839 | 12.63887 | 26 ft | 1 kts | 99° |
| 2026-04-30 21:16 | 55.62821 | 12.63941 | 27 ft | 11 kts | 144° |
| 2026-04-30 21:16 | 55.62721 | 12.63890 | 27 ft | 14 kts | 213° |
| 2026-04-30 21:16 | 55.62647 | 12.63807 | 29 ft | 6 kts | 212° |
| 2026-04-30 21:16 | 55.62603 | 12.63775 | 26 ft | 8 kts | 193° |
| 2026-04-30 21:17 | 55.62523 | 12.63778 | 29 ft | 17 kts | 166° |
| 2026-04-30 21:17 | 55.62406 | 12.63944 | 25 ft | 24 kts | 123° |
| 2026-04-30 21:17 | 55.62311 | 12.64201 | 26 ft | 26 kts | 123° |
| 2026-04-30 21:17 | 55.62219 | 12.64399 | 24 ft | 15 kts | 160° |
| 2026-04-30 21:18 | 55.62112 | 12.64438 | 26 ft | 16 kts | 169° |
| 2026-04-30 21:18 | 55.61995 | 12.64476 | 29 ft | 18 kts | 169° |
| 2026-04-30 21:18 | 55.61862 | 12.64521 | 26 ft | 21 kts | 169° |
| 2026-04-30 21:18 | 55.61716 | 12.64569 | 26 ft | 19 kts | 174° |
| 2026-04-30 21:19 | 55.61599 | 12.64476 | 26 ft | 20 kts | 213° |
| 2026-04-30 21:19 | 55.61476 | 12.64334 | 26 ft | 22 kts | 213° |
| 2026-04-30 21:19 | 55.61339 | 12.64176 | 27 ft | 25 kts | 213° |
| 2026-04-30 21:19 | 55.61190 | 12.64004 | 26 ft | 27 kts | 213° |
| 2026-04-30 21:20 | 55.61028 | 12.63819 | 26 ft | 29 kts | 213° |
| 2026-04-30 21:20 | 55.60868 | 12.63636 | 28 ft | 19 kts | 213° |
| 2026-04-30 21:20 | 55.60749 | 12.63500 | 26 ft | 21 kts | 212° |
| 2026-04-30 21:20 | 55.60623 | 12.63340 | 29 ft | 24 kts | 219° |
| 2026-04-30 21:21 | 55.60529 | 12.63216 | 26 ft | 11 kts | 192° |
| 2026-04-30 21:21 | 55.60461 | 12.63284 | 30 ft | 13 kts | 132° |
| 2026-04-30 21:21 | 55.60472 | 12.63552 | 27 ft | 7 kts | 41° |
| 2026-04-30 21:22 | 55.60514 | 12.63617 | 27 ft | 9 kts | 41° |
| 2026-04-30 21:22 | 55.61237 | 12.64736 | 27 ft | 124 kts | 41° |
| 2026-04-30 21:23 | 55.61992 | 12.65923 | 143 ft | 156 kts | 39° |
| 2026-04-30 21:23 | 55.62780 | 12.67170 | 846 ft | 155 kts | 37° |
| 2026-04-30 21:23 | 55.64599 | 12.69891 | 1907 ft | 182 kts | 36° |
| 2026-04-30 21:24 | 55.65703 | 12.70992 | 2536 ft | 190 kts | 10° |
| 2026-04-30 21:24 | 55.67089 | 12.71123 | 2952 ft | 211 kts | 349° |
| 2026-04-30 21:24 | 55.68482 | 12.70049 | 3462 ft | 230 kts | 319° |
| 2026-04-30 21:24 | 55.69655 | 12.67959 | 4088 ft | 247 kts | 319° |
| 2026-04-30 21:25 | 55.72354 | 12.63956 | 5842 ft | 257 kts | 322° |
| 2026-04-30 21:25 | 55.73731 | 12.61896 | 6707 ft | 262 kts | 322° |
| 2026-04-30 21:25 | 55.75135 | 12.59779 | 7532 ft | 267 kts | 322° |
| 2026-04-30 21:26 | 55.77982 | 12.55462 | 9224 ft | 275 kts | 323° |
| 2026-04-30 21:26 | 55.79446 | 12.53234 | 10067 ft | 279 kts | 323° |
| 2026-04-30 21:27 | 55.82522 | 12.48551 | 11230 ft | 307 kts | 323° |
| 2026-04-30 21:27 | 55.84173 | 12.46045 | 11647 ft | 325 kts | 323° |
| 2026-04-30 21:27 | 55.85921 | 12.43385 | 12231 ft | 336 kts | 323° |
| 2026-04-30 21:28 | 55.89500 | 12.37904 | 13899 ft | 344 kts | 324° |
| 2026-04-30 21:28 | 55.91255 | 12.34942 | 14701 ft | 350 kts | 321° |
| 2026-04-30 21:28 | 55.94786 | 12.28848 | 16278 ft | 356 kts | 321° |
| 2026-04-30 21:29 | 55.96583 | 12.25760 | 17048 ft | 360 kts | 321° |
| 2026-04-30 21:29 | 56.02052 | 12.16352 | 19267 ft | 369 kts | 321° |
| 2026-04-30 21:30 | 56.05762 | 12.09951 | 20337 ft | 377 kts | 320° |
| 2026-04-30 21:31 | 56.11396 | 11.99713 | 20462 ft | 389 kts | 319° |
| 2026-04-30 21:31 | 56.15256 | 11.92867 | 20462 ft | 390 kts | 319° |
| 2026-04-30 21:32 | 56.19071 | 11.85927 | 20460 ft | 391 kts | 317° |
| 2026-04-30 21:32 | 56.20945 | 11.82375 | 20461 ft | 391 kts | 317° |
| 2026-04-30 21:32 | 56.22818 | 11.78828 | 20459 ft | 391 kts | 317° |
| 2026-04-30 21:32 | 56.24667 | 11.75328 | 20458 ft | 391 kts | 317° |
| 2026-04-30 21:33 | 56.26541 | 11.71776 | 20456 ft | 391 kts | 317° |
| 2026-04-30 21:33 | 56.30284 | 11.64671 | 20455 ft | 391 kts | 317° |
| 2026-04-30 21:33 | 56.32147 | 11.61126 | 20454 ft | 390 kts | 317° |
| 2026-04-30 21:34 | 56.34007 | 11.57583 | 20454 ft | 389 kts | 317° |
| 2026-04-30 21:34 | 56.37733 | 11.50464 | 20444 ft | 390 kts | 316° |
| 2026-04-30 21:34 | 56.39597 | 11.46898 | 20458 ft | 391 kts | 316° |
| 2026-04-30 21:35 | 56.41464 | 11.43318 | 20460 ft | 391 kts | 316° |
| 2026-04-30 21:35 | 56.43326 | 11.39744 | 20449 ft | 389 kts | 316° |
| 2026-04-30 21:35 | 56.45143 | 11.36250 | 20462 ft | 372 kts | 316° |
| 2026-04-30 21:35 | 56.46883 | 11.32899 | 20379 ft | 360 kts | 316° |
| 2026-04-30 21:36 | 56.48605 | 11.29579 | 19889 ft | 361 kts | 316° |
| 2026-04-30 21:36 | 56.50299 | 11.26308 | 19429 ft | 361 kts | 316° |
| 2026-04-30 21:37 | 56.55456 | 11.16319 | 17949 ft | 362 kts | 316° |
| 2026-04-30 21:37 | 56.57180 | 11.12971 | 17197 ft | 368 kts | 316° |
| 2026-04-30 21:37 | 56.58940 | 11.09548 | 16581 ft | 371 kts | 316° |
| 2026-04-30 21:37 | 56.60694 | 11.06131 | 16073 ft | 370 kts | 316° |
| 2026-04-30 21:38 | 56.62454 | 11.02697 | 15580 ft | 370 kts | 316° |
| 2026-04-30 21:38 | 56.64203 | 10.99280 | 15095 ft | 369 kts | 316° |
| 2026-04-30 21:38 | 56.65949 | 10.95864 | 14603 ft | 368 kts | 316° |
| 2026-04-30 21:38 | 56.67666 | 10.92499 | 14125 ft | 367 kts | 316° |
| 2026-04-30 21:39 | 56.69402 | 10.89091 | 13589 ft | 366 kts | 316° |
| 2026-04-30 21:39 | 56.71126 | 10.85704 | 13097 ft | 364 kts | 316° |
| 2026-04-30 21:39 | 56.72841 | 10.82328 | 12622 ft | 362 kts | 316° |
| 2026-04-30 21:39 | 56.74553 | 10.78954 | 12154 ft | 360 kts | 316° |
| 2026-04-30 21:40 | 56.76251 | 10.75602 | 11671 ft | 358 kts | 315° |
| 2026-04-30 21:40 | 56.77938 | 10.72269 | 11207 ft | 356 kts | 315° |
| 2026-04-30 21:40 | 56.79609 | 10.68961 | 10740 ft | 355 kts | 315° |
| 2026-04-30 21:40 | 56.81268 | 10.65673 | 10265 ft | 346 kts | 315° |
| 2026-04-30 21:41 | 56.82873 | 10.62488 | 9780 ft | 333 kts | 315° |
| 2026-04-30 21:41 | 56.84408 | 10.59438 | 9339 ft | 320 kts | 315° |
| 2026-04-30 21:41 | 56.85864 | 10.56537 | 8917 ft | 308 kts | 314° |
| 2026-04-30 21:41 | 56.87293 | 10.53692 | 8532 ft | 298 kts | 314° |
| 2026-04-30 21:42 | 56.88675 | 10.50936 | 8152 ft | 288 kts | 314° |
| 2026-04-30 21:42 | 56.90006 | 10.48279 | 7783 ft | 279 kts | 314° |
| 2026-04-30 21:42 | 56.91307 | 10.45677 | 7428 ft | 276 kts | 314° |
| 2026-04-30 21:42 | 56.92611 | 10.43068 | 7081 ft | 278 kts | 314° |
| 2026-04-30 21:43 | 56.93923 | 10.40438 | 6701 ft | 283 kts | 314° |
| 2026-04-30 21:43 | 56.94809 | 10.38661 | 6434 ft | 288 kts | 314° |
| 2026-04-30 21:43 | 56.96615 | 10.35034 | 5874 ft | 292 kts | 314° |
| 2026-04-30 21:43 | 56.97886 | 10.32161 | 5418 ft | 287 kts | 306° |
| 2026-04-30 21:44 | 56.98997 | 10.29176 | 5012 ft | 278 kts | 306° |
| 2026-04-30 21:44 | 57.00084 | 10.26302 | 4627 ft | 270 kts | 306° |
| 2026-04-30 21:44 | 57.01145 | 10.23521 | 4233 ft | 262 kts | 306° |
| 2026-04-30 21:44 | 57.01834 | 10.21724 | 3971 ft | 257 kts | 305° |
| 2026-04-30 21:45 | 57.02854 | 10.19072 | 3620 ft | 251 kts | 305° |
| 2026-04-30 21:45 | 57.03847 | 10.16499 | 3287 ft | 243 kts | 305° |
| 2026-04-30 21:45 | 57.04798 | 10.14030 | 3063 ft | 230 kts | 305° |
| 2026-04-30 21:45 | 57.05710 | 10.11674 | 2771 ft | 223 kts | 305° |
| 2026-04-30 21:46 | 57.06595 | 10.09378 | 2475 ft | 217 kts | 305° |
| 2026-04-30 21:46 | 57.07444 | 10.07174 | 2307 ft | 204 kts | 304° |
| 2026-04-30 21:46 | 57.08216 | 10.05174 | 2124 ft | 180 kts | 303° |
| 2026-04-30 21:46 | 57.08901 | 10.03391 | 1897 ft | 162 kts | 303° |
| 2026-04-30 21:47 | 57.09518 | 10.01781 | 1635 ft | 149 kts | 303° |
| 2026-04-30 21:47 | 57.10066 | 10.00193 | 1398 ft | 144 kts | 292° |
| 2026-04-30 21:47 | 57.10304 | 9.98435 | 1233 ft | 138 kts | 275° |
| 2026-04-30 21:47 | 57.10258 | 9.96698 | 1040 ft | 134 kts | 264° |
| 2026-04-30 21:48 | 57.10131 | 9.94995 | 854 ft | 135 kts | 263° |
| 2026-04-30 21:48 | 57.10014 | 9.93271 | 709 ft | 140 kts | 262° |
| 2026-04-30 21:48 | 57.09894 | 9.91543 | 570 ft | 134 kts | 263° |
| 2026-04-30 21:48 | 57.09793 | 9.89841 | 332 ft | 137 kts | 262° |
| 2026-04-30 21:49 | 57.09684 | 9.88096 | 96 ft | 137 kts | 261° |
| 2026-04-30 21:49 | 57.09576 | 9.86454 | 21 ft | 107 kts | 263° |
| 2026-04-30 21:49 | 57.09528 | 9.85722 | 23 ft | 11 kts | 264° |
| 2026-04-30 21:49 | 57.09512 | 9.85676 | 23 ft | 2 kts | 184° |
| 2026-04-30 21:50 | 57.09476 | 9.85696 | 22 ft | 11 kts | 159° |
| 2026-04-30 21:50 | 57.09392 | 9.85817 | 21 ft | 19 kts | 141° |
| 2026-04-30 21:50 | 57.09272 | 9.85986 | 23 ft | 24 kts | 143° |
| 2026-04-30 21:50 | 57.09133 | 9.86180 | 23 ft | 26 kts | 143° |
| 2026-04-30 21:51 | 57.08981 | 9.86394 | 23 ft | 28 kts | 143° |
| 2026-04-30 21:51 | 57.08831 | 9.86611 | 21 ft | 22 kts | 141° |
| 2026-04-30 21:51 | 57.08716 | 9.86782 | 21 ft | 21 kts | 140° |
| 2026-04-30 21:51 | 57.08645 | 9.86920 | 23 ft | 9 kts | 91° |
| 2026-04-30 21:52 | 57.08670 | 9.87000 | 23 ft | 1 kts | 54° |